Time;durP1;ratioP1;P1;durP2;ratioP2;P2;SDS_P1;SDS_P2;PMS_P1;PMS_P2;Temp;Humidity;BMP_temperature;BMP_pressure;BME280_temperature;BME280_humidity;BME280_pressure;Samples;Min_cycle;Max_cycle;Signal;HPM_P1;HPM_P2
2021/08/27 00:01:18;;;;;;;28.50;9.60;;;;;;;30.37;32.54;99553.78;5055251;28;20040;-72
2021/08/27 00:03:44;;;;;;;27.92;10.38;;;;;;;30.34;32.99;99559.03;5038717;28;20082;-72
2021/08/27 00:06:10;;;;;;;20.05;9.40;;;;;;;30.39;32.73;99561.72;5055374;28;20539;-72
2021/08/27 00:08:36;;;;;;;17.20;9.32;;;;;;;30.40;32.69;99558.69;5055392;28;20052;-72
2021/08/27 00:11:01;;;;;;;18.85;9.93;;;;;;;30.29;32.72;99548.13;5071439;28;20040;-71
2021/08/27 00:13:27;;;;;;;18.67;9.13;;;;;;;30.37;32.77;99548.31;5038112;28;20136;-71
2021/08/27 00:15:53;;;;;;;19.45;10.13;;;;;;;30.42;32.81;99555.66;5038045;28;20063;-71
2021/08/27 00:18:19;;;;;;;21.42;9.77;;;;;;;30.34;33.06;99559.84;5054905;28;20412;-71
2021/08/27 00:20:44;;;;;;;19.20;9.82;;;;;;;30.29;33.07;99556.34;5053918;28;20071;-72
2021/08/27 00:23:10;;;;;;;25.45;9.55;;;;;;;30.23;33.16;99568.47;5037097;28;20043;-71
2021/08/27 00:25:36;;;;;;;19.55;9.48;;;;;;;30.25;33.25;99558.00;5053384;28;20462;-71
2021/08/27 00:28:05;;;;;;;20.08;9.82;;;;;;;30.56;32.56;99551.97;5070427;28;20135;-71
2021/08/27 00:30:31;;;;;;;19.38;9.80;;;;;;;30.66;32.28;99559.28;5070114;28;20043;-71
2021/08/27 00:32:57;;;;;;;20.67;10.07;;;;;;;30.60;32.54;99553.00;5071052;28;20462;-71
2021/08/27 00:35:23;;;;;;;19.20;9.88;;;;;;;30.57;32.63;99550.03;5037695;28;20115;-71
2021/08/27 00:37:48;;;;;;;16.88;10.18;;;;;;;30.36;33.23;99545.88;5036542;28;20408;-71
2021/08/27 00:40:15;;;;;;;15.68;10.13;;;;;;;30.51;33.23;99542.97;5035541;28;20117;-71
2021/08/27 00:42:41;;;;;;;23.45;10.90;;;;;;;30.44;33.06;99547.97;5052295;28;20078;-71
2021/08/27 00:45:07;;;;;;;22.65;10.98;;;;;;;30.34;33.56;99539.84;5019244;28;20071;-71
2021/08/27 00:47:33;;;;;;;23.65;10.52;;;;;;;30.19;33.22;99526.25;5050816;28;20044;-71
2021/08/27 00:49:59;;;;;;;15.82;10.80;;;;;;;30.33;33.18;99551.91;5066807;28;20036;-71
2021/08/27 00:52:25;;;;;;;24.42;10.90;;;;;;;30.26;33.57;99540.50;5050324;28;20044;-71
2021/08/27 00:54:52;;;;;;;22.10;11.43;;;;;;;30.33;33.57;99544.53;5068004;28;20365;-71
2021/08/27 00:57:20;;;;;;;23.60;11.82;;;;;;;30.47;33.48;99555.63;5069872;28;20527;-70
2021/08/27 00:59:46;;;;;;;18.52;11.10;;;;;;;30.13;33.86;99549.34;5052248;28;20087;-70
2021/08/27 01:02:12;;;;;;;20.20;12.05;;;;;;;29.81;34.19;99538.09;5019265;28;20487;-70
2021/08/27 01:04:40;;;;;;;23.90;11.82;;;;;;;30.13;33.98;99547.41;5054612;28;20041;-72
2021/08/27 01:07:11;;;;;;;18.73;11.55;;;;;;;30.37;33.52;99539.28;5071998;28;20051;-72
2021/08/27 01:10:00;;;;;;;17.52;11.32;;;;;;;30.58;33.23;99548.94;5072373;28;20040;-72
2021/08/27 01:12:38;;;;;;;18.55;11.43;;;;;;;30.71;33.07;99548.22;5053930;28;20078;-71
2021/08/27 01:15:20;;;;;;;19.67;11.93;;;;;;;30.97;32.43;99555.91;5070428;28;20049;-71
2021/08/27 01:17:51;;;;;;;16.58;11.20;;;;;;;30.88;32.46;99559.59;5037408;28;20048;-71
2021/08/27 01:20:37;;;;;;;18.67;11.48;;;;;;;30.40;33.24;99560.63;5036724;28;20143;-73
2021/08/27 01:23:47;;;;;;;19.10;11.65;;;;;;;30.81;32.61;99559.13;5053791;28;20059;-72
2021/08/27 01:26:17;;;;;;;19.40;11.98;;;;;;;30.73;32.77;99557.81;5069898;28;20200;-71
2021/08/27 01:28:51;;;;;;;17.30;11.98;;;;;;;30.59;32.98;99537.69;5070275;28;20044;-73
2021/08/27 01:31:19;;;;;;;17.27;11.73;;;;;;;30.62;33.03;99553.53;5053955;28;20045;-73
2021/08/27 01:34:14;;;;;;;20.33;10.60;;;;;;;30.60;32.91;99544.78;5071457;28;20036;-74
2021/08/27 01:36:41;;;;;;;22.90;11.45;;;;;;;30.45;33.44;99544.13;5018467;28;20044;-74
2021/08/27 01:39:09;;;;;;;24.50;12.75;;;;;;;30.64;33.02;99554.09;5053500;28;20048;-74
2021/08/27 01:41:36;;;;;;;17.15;11.10;;;;;;;30.33;33.32;99541.78;5036886;28;20048;-74
2021/08/27 01:44:03;;;;;;;19.02;11.55;;;;;;;30.53;32.88;99555.28;5053603;28;20597;-74
2021/08/27 01:46:31;;;;;;;19.60;11.48;;;;;;;30.20;33.52;99549.88;5053275;28;20138;-73
2021/08/27 01:48:57;;;;;;;17.35;11.77;;;;;;;29.98;33.99;99557.69;5036714;28;20050;-72
2021/08/27 01:51:23;;;;;;;19.77;11.88;;;;;;;30.20;33.49;99553.41;5053278;28;20052;-71
2021/08/27 01:53:49;;;;;;;18.80;11.73;;;;;;;30.00;33.54;99558.22;5036775;28;20048;-72
2021/08/27 01:56:15;;;;;;;21.63;11.82;;;;;;;30.10;33.69;99566.34;5053303;28;20040;-72
2021/08/27 01:58:41;;;;;;;21.58;11.65;;;;;;;29.91;33.98;99565.41;5036799;28;20037;-73
2021/08/27 02:01:07;;;;;;;18.20;11.98;;;;;;;29.86;33.84;99562.72;5036699;28;20044;-73
2021/08/27 02:03:33;;;;;;;18.27;11.20;;;;;;;30.10;33.65;99567.16;5053717;28;20386;-73
2021/08/27 02:06:00;;;;;;;18.35;10.82;;;;;;;30.10;33.48;99563.59;5053056;28;20044;-73
2021/08/27 02:08:27;;;;;;;18.90;11.02;;;;;;;30.02;33.75;99567.78;5020139;28;20040;-73
2021/08/27 02:10:53;;;;;;;22.27;11.25;;;;;;;30.08;33.76;99563.91;5069836;28;20040;-73
2021/08/27 02:13:20;;;;;;;21.52;11.45;;;;;;;30.17;33.35;99555.88;5052933;28;20496;-73
2021/08/27 02:15:47;;;;;;;19.35;11.20;;;;;;;30.25;33.39;99564.31;5020037;28;20408;-72
2021/08/27 02:18:13;;;;;;;19.63;10.38;;;;;;;30.17;33.51;99575.06;5036592;28;20051;-73
2021/08/27 02:20:39;;;;;;;20.33;11.23;;;;;;;30.06;33.51;99568.81;5069925;28;20060;-73
2021/08/27 02:23:06;;;;;;;16.98;11.45;;;;;;;30.29;33.62;99567.31;5036289;28;20523;-71
2021/08/27 02:25:34;;;;;;;20.25;11.50;;;;;;;29.99;33.60;99576.56;5069471;28;20044;-71
2021/08/27 02:28:02;;;;;;;16.52;11.10;;;;;;;30.07;33.58;99569.66;5053032;28;20086;-73
2021/08/27 02:30:30;;;;;;;16.85;11.32;;;;;;;30.03;33.68;99571.34;5036239;28;20036;-71
2021/08/27 02:32:58;;;;;;;20.70;11.25;;;;;;;30.24;33.37;99575.56;5070417;28;20500;-71
2021/08/27 02:35:25;;;;;;;17.75;11.50;;;;;;;30.23;33.18;99579.44;5073615;28;20052;-71
2021/08/27 02:37:51;;;;;;;22.88;11.95;;;;;;;30.00;33.42;99583.66;5073491;28;20048;-71
2021/08/27 02:40:17;;;;;;;18.20;11.90;;;;;;;30.11;33.33;99582.50;5040131;28;20032;-71
2021/08/27 02:42:43;;;;;;;17.90;11.48;;;;;;;30.15;33.10;99580.00;5057233;28;20040;-72
2021/08/27 02:45:13;;;;;;;;;;;;;;;30.53;32.53;99579.13;5057951;28;20117;-71
2021/08/27 02:47:39;;;;;;;20.27;11.40;;;;;;;30.13;33.06;99584.94;5040020;28;20414;-71
2021/08/27 02:50:05;;;;;;;21.52;11.50;;;;;;;30.15;33.14;99590.97;5056598;28;20048;-71
2021/08/27 02:52:44;;;;;;;21.55;11.45;;;;;;;30.45;32.71;99572.34;5056109;28;20133;-71
2021/08/27 02:55:15;;;;;;;18.60;11.25;;;;;;;30.37;32.77;99594.09;5056474;28;20174;-71
2021/08/27 02:57:51;;;;;;;;;;;;;;;30.48;32.60;99587.41;5073717;28;20051;-71
2021/08/27 03:00:17;;;;;;;16.35;10.90;;;;;;;29.97;33.35;99586.19;5039438;28;19920;-71
2021/08/27 03:02:45;;;;;;;18.58;11.73;;;;;;;29.77;33.64;99589.06;5039771;28;20097;-71
2021/08/27 03:05:22;;;;;;;15.25;10.38;;;;;;;30.30;32.84;99580.72;5072329;28;20377;-71
2021/08/27 03:07:57;;;;;;;23.08;11.35;;;;;;;30.44;32.80;99592.66;5072655;28;20051;-70
2021/08/27 03:10:31;;;;;;;18.48;10.95;;;;;;;30.44;32.65;99606.38;5072527;28;20059;-71
2021/08/27 03:13:06;;;;;;;21.77;12.73;;;;;;;30.10;33.17;99596.47;5055832;28;20427;-72
2021/08/27 03:15:59;;;;;;;20.52;11.35;;;;;;;30.16;33.40;99601.63;5055915;28;20059;-72
2021/08/27 03:18:35;;;;;;;19.63;11.98;;;;;;;30.22;33.20;99605.19;5022244;28;20135;-71
2021/08/27 03:21:13;;;;;;;21.02;11.93;;;;;;;30.41;32.79;99600.63;5022499;28;20048;-72
2021/08/27 03:23:41;;;;;;;23.60;12.02;;;;;;;30.14;33.41;99598.34;5072204;28;20067;-71
2021/08/27 03:26:09;;;;;;;20.05;11.93;;;;;;;30.08;33.28;99609.63;5073289;28;20135;-71
2021/08/27 03:28:40;;;;;;;19.13;11.90;;;;;;;29.88;33.72;99610.59;5073393;28;20048;-71
2021/08/27 03:31:06;;;;;;;24.30;11.27;;;;;;;29.79;33.59;99617.78;5073217;28;20036;-71
2021/08/27 03:33:32;;;;;;;25.40;12.23;;;;;;;29.80;33.80;99610.41;5055386;28;20040;-71
2021/08/27 03:36:00;;;;;;;18.67;11.77;;;;;;;30.07;33.28;99613.50;5038953;28;20056;-70
2021/08/27 03:38:27;;;;;;;22.33;12.32;;;;;;;30.15;33.06;99616.47;5055179;28;20074;-70
2021/08/27 03:40:53;;;;;;;20.98;11.57;;;;;;;30.25;32.89;99621.03;5071783;28;20037;-72
2021/08/27 03:43:20;;;;;;;21.42;11.82;;;;;;;30.11;33.36;99629.06;5054894;28;20056;-69
2021/08/27 03:45:49;;;;;;;22.35;11.77;;;;;;;30.48;32.63;99628.53;5022163;28;20140;-70
2021/08/27 03:48:15;;;;;;;20.77;11.45;;;;;;;30.37;32.47;99635.22;5055527;28;20120;-71
2021/08/27 03:50:42;;;;;;;17.13;12.02;;;;;;;30.56;32.19;99639.69;5055168;28;20070;-70
2021/08/27 03:53:08;;;;;;;20.65;11.80;;;;;;;30.63;32.31;99642.13;5054980;28;20423;-69
2021/08/27 03:55:34;;;;;;;19.40;12.25;;;;;;;30.31;32.47;99639.06;5054760;28;20049;-69
2021/08/27 03:58:00;;;;;;;20.30;11.25;;;;;;;30.56;32.03;99638.88;5038048;28;20499;-70
2021/08/27 04:00:26;;;;;;;17.45;11.45;;;;;;;30.67;31.82;99643.16;5071197;28;20039;-70
2021/08/27 04:02:53;;;;;;;21.02;12.57;;;;;;;30.63;32.10;99642.13;5054872;28;20044;-71
2021/08/27 04:05:21;;;;;;;19.45;11.20;;;;;;;30.41;31.99;99647.22;5054800;28;20071;-71
2021/08/27 04:07:47;;;;;;;16.35;11.63;;;;;;;30.61;31.90;99642.41;5072789;28;20469;-71
2021/08/27 04:10:16;;;;;;;17.88;11.57;;;;;;;30.61;32.01;99642.41;5037992;28;20049;-71
2021/08/27 04:12:42;;;;;;;18.73;12.43;;;;;;;30.56;31.71;99645.19;5037887;28;20040;-71
2021/08/27 04:15:10;;;;;;;21.20;12.68;;;;;;;30.71;31.67;99642.28;5071232;28;20675;-71
2021/08/27 04:17:36;;;;;;;22.73;12.63;;;;;;;30.68;31.90;99647.53;5071096;28;20032;-71
2021/08/27 04:20:05;;;;;;;19.70;12.68;;;;;;;30.64;32.22;99641.00;5021358;28;20082;-71
2021/08/27 04:22:31;;;;;;;19.05;12.00;;;;;;;30.54;31.72;99649.28;5054459;28;20048;-71
2021/08/27 04:24:56;;;;;;;16.42;12.07;;;;;;;30.21;32.12;99648.22;5037694;28;20151;-71
2021/08/27 04:27:22;;;;;;;19.77;12.82;;;;;;;30.55;31.63;99653.69;5070899;28;20131;-71
2021/08/27 04:29:48;;;;;;;22.45;12.45;;;;;;;30.79;31.61;99651.84;5037952;28;20064;-70
2021/08/27 04:32:14;;;;;;;22.45;12.93;;;;;;;30.60;31.76;99648.19;5054413;28;20052;-71
2021/08/27 04:34:40;;;;;;;20.60;13.10;;;;;;;30.84;31.10;99663.59;5054254;28;20093;-70
2021/08/27 04:37:05;;;;;;;19.48;13.15;;;;;;;30.86;30.94;99655.09;5021093;28;20045;-70
2021/08/27 04:39:31;;;;;;;22.00;13.60;;;;;;;30.88;31.18;99658.34;5037319;28;20044;-70
2021/08/27 04:41:57;;;;;;;22.90;13.30;;;;;;;30.87;31.45;99659.44;5020907;28;20527;-70
2021/08/27 04:44:23;;;;;;;27.85;13.52;;;;;;;30.73;31.26;99650.22;5020795;28;20462;-70
2021/08/27 04:46:49;;;;;;;23.70;15.32;;;;;;;30.89;30.89;99671.75;5021026;28;20070;-70
2021/08/27 04:49:15;;;;;;;25.30;14.95;;;;;;;30.66;31.22;99668.97;5057648;28;20082;-67
2021/08/27 04:51:41;;;;;;;21.67;14.48;;;;;;;30.06;31.52;99667.44;5067035;28;20052;-67
2021/08/27 04:54:07;;;;;;;26.83;14.40;;;;;;;29.77;32.90;99665.75;5091054;28;20051;-66
2021/08/27 04:56:33;;;;;;;25.10;14.27;;;;;;;30.03;32.41;99669.97;5071818;28;20077;-66
2021/08/27 04:58:58;;;;;;;27.00;15.50;;;;;;;29.90;31.98;99651.41;5056113;28;20087;-66
2021/08/27 05:01:24;;;;;;;20.55;14.68;;;;;;;30.13;32.06;99667.13;5056257;28;20044;-66
2021/08/27 05:03:50;;;;;;;23.10;14.93;;;;;;;30.06;32.19;99670.19;5073603;28;20096;-65
2021/08/27 05:06:15;;;;;;;21.20;14.98;;;;;;;30.04;31.92;99646.94;5056563;28;20526;-66
2021/08/27 05:08:41;;;;;;;28.05;16.25;;;;;;;29.69;32.69;99647.16;5089759;28;20407;-66
2021/08/27 05:11:07;;;;;;;26.70;15.45;;;;;;;29.66;32.73;99651.28;5089838;28;20499;-66
2021/08/27 05:13:33;;;;;;;27.25;16.27;;;;;;;29.85;32.69;99656.91;5072874;28;20053;-67
2021/08/27 05:15:58;;;;;;;24.80;17.00;;;;;;;29.91;32.44;99661.28;5056455;28;20419;-67
2021/08/27 05:18:25;;;;;;;25.80;16.17;;;;;;;29.81;32.79;99666.78;5055921;28;20522;-67
2021/08/27 05:20:51;;;;;;;31.75;15.18;;;;;;;29.86;32.52;99662.09;5056800;28;20040;-67
2021/08/27 05:23:17;;;;;;;22.63;16.15;;;;;;;29.57;33.10;99670.16;5055873;28;20063;-68
2021/08/27 05:25:43;;;;;;;28.27;16.38;;;;;;;29.68;32.61;99675.66;5089159;28;20065;-67
2021/08/27 05:28:09;;;;;;;28.88;17.38;;;;;;;29.37;33.23;99670.25;5038693;28;20044;-67
2021/08/27 05:30:34;;;;;;;32.20;17.10;;;;;;;29.78;32.67;99681.88;5089522;28;20128;-67
2021/08/27 05:33:00;;;;;;;26.23;16.55;;;;;;;29.92;32.51;99687.56;5072591;28;20173;-68
2021/08/27 05:35:26;;;;;;;28.70;17.38;;;;;;;29.60;32.65;99674.25;5072200;28;20043;-68
2021/08/27 05:37:52;;;;;;;31.13;17.50;;;;;;;29.63;33.04;99689.31;5039417;28;20043;-67
2021/08/27 05:40:19;;;;;;;30.58;17.23;;;;;;;30.04;32.05;99691.59;5056515;28;20036;-67
2021/08/27 05:42:44;;;;;;;28.08;17.58;;;;;;;30.36;31.91;99686.47;5039218;28;20089;-68
2021/08/27 05:45:11;;;;;;;25.88;17.15;;;;;;;30.78;31.14;99694.91;5055659;28;20592;-68
2021/08/27 05:47:37;;;;;;;27.65;17.58;;;;;;;30.83;30.95;99694.06;5089261;28;20054;-68
2021/08/27 05:50:04;;;;;;;31.05;17.58;;;;;;;31.03;30.57;99685.59;5089165;28;20458;-68
2021/08/27 05:52:29;;;;;;;26.30;17.63;;;;;;;31.06;30.49;99699.56;5039267;28;20523;-67
2021/08/27 05:54:55;;;;;;;29.83;18.50;;;;;;;30.84;30.62;99699.25;5072459;28;20139;-67
2021/08/27 05:57:21;;;;;;;31.10;18.95;;;;;;;30.73;30.79;99705.91;5055658;28;20565;-67
2021/08/27 05:59:47;;;;;;;29.92;19.33;;;;;;;30.78;30.69;99707.81;5089164;28;20036;-66
2021/08/27 06:02:12;;;;;;;28.90;18.58;;;;;;;30.78;30.66;99697.63;5071973;28;20495;-65
2021/08/27 06:04:38;;;;;;;28.02;18.60;;;;;;;30.71;30.77;99702.63;5088905;28;20040;-66
2021/08/27 06:07:04;;;;;;;35.60;19.23;;;;;;;30.74;31.03;99685.59;5055110;28;20048;-66
2021/08/27 06:09:30;;;;;;;29.02;19.65;;;;;;;30.55;31.26;99705.78;5071774;28;20044;-66
2021/08/27 06:11:55;;;;;;;36.53;19.00;;;;;;;30.74;30.92;99706.69;5038963;28;20074;-66
2021/08/27 06:14:21;;;;;;;33.40;20.00;;;;;;;30.87;30.65;99706.09;5090422;28;20044;-65
2021/08/27 06:16:47;;;;;;;31.85;19.58;;;;;;;30.79;31.03;99704.78;5089838;28;20044;-66
2021/08/27 06:19:13;;;;;;;30.95;19.98;;;;;;;30.92;30.76;99698.59;5088801;28;20045;-66
2021/08/27 06:21:39;;;;;;;33.13;19.85;;;;;;;31.12;30.50;99709.38;5071994;28;20048;-66
2021/08/27 06:24:05;;;;;;;28.85;20.85;;;;;;;31.26;30.34;99703.22;5071841;28;20150;-66
2021/08/27 06:26:31;;;;;;;34.42;21.45;;;;;;;31.15;30.29;99706.06;5072005;28;20521;-66
2021/08/27 06:28:58;;;;;;;33.80;20.13;;;;;;;31.41;29.94;99712.13;5088702;28;20130;-65
2021/08/27 06:31:25;;;;;;;30.20;20.08;;;;;;;31.28;30.00;99695.50;5072138;28;20054;-66
2021/08/27 06:33:51;;;;;;;35.38;21.08;;;;;;;31.28;29.46;99707.28;5055500;28;20046;-70
2021/08/27 06:36:17;;;;;;;32.25;20.90;;;;;;;31.56;29.61;99711.13;5071852;28;20411;-66
2021/08/27 06:38:44;;;;;;;31.35;21.67;;;;;;;31.15;29.96;99711.53;5090217;28;20036;-65
2021/08/27 06:41:10;;;;;;;39.63;21.65;;;;;;;31.28;29.67;99707.28;5088592;28;20085;-65
2021/08/27 06:43:42;;;;;;;36.88;21.85;;;;;;;31.44;29.73;99719.78;5088570;28;20043;-66
2021/08/27 06:46:12;;;;;;;31.08;21.20;;;;;;;31.52;29.69;99713.66;5089859;28;20040;-66
2021/08/27 06:48:38;;;;;;;41.60;22.27;;;;;;;31.38;29.45;99715.47;5088723;28;20040;-66
2021/08/27 06:51:04;;;;;;;32.33;20.35;;;;;;;31.63;29.12;99704.16;5088658;28;20234;-65
2021/08/27 06:53:30;;;;;;;34.80;21.45;;;;;;;31.58;29.04;99717.16;5088393;28;20071;-65
2021/08/27 06:55:58;;;;;;;36.90;22.10;;;;;;;31.87;28.76;99715.97;5088941;28;20100;-65
2021/08/27 06:58:23;;;;;;;34.17;22.40;;;;;;;32.20;28.29;99727.88;5087758;28;20043;-65
2021/08/27 07:00:49;;;;;;;39.92;23.58;;;;;;;32.29;28.02;99704.91;5086089;28;20043;-65
2021/08/27 07:03:15;;;;;;;34.67;22.00;;;;;;;32.61;27.48;99723.44;5052686;28;20149;-65
2021/08/27 07:05:41;;;;;;;36.10;23.17;;;;;;;33.13;26.70;99711.25;5069326;28;20062;-65
2021/08/27 07:08:07;;;;;;;37.78;24.02;;;;;;;33.48;25.98;99714.19;5052437;28;20035;-65
2021/08/27 07:10:33;;;;;;;38.25;23.95;;;;;;;33.84;25.33;99720.56;5086395;28;20072;-65
2021/08/27 07:12:59;;;;;;;37.35;23.80;;;;;;;33.65;25.63;99711.63;5088773;28;20036;-65
2021/08/27 07:15:25;;;;;;;41.08;24.63;;;;;;;34.48;24.57;99713.09;5071333;28;20499;-65
2021/08/27 07:17:52;;;;;;;42.60;25.15;;;;;;;34.93;24.03;99710.06;5055269;28;20044;-65
2021/08/27 07:20:18;;;;;;;40.08;24.85;;;;;;;35.04;23.89;99697.63;5091100;28;20131;-65
2021/08/27 07:22:45;;;;;;;37.25;24.88;;;;;;;35.54;23.25;99717.50;5091745;28;20148;-65
2021/08/27 07:25:12;;;;;;;37.40;25.02;;;;;;;36.14;22.41;99712.97;5057021;28;20062;-66
2021/08/27 07:27:39;;;;;;;40.65;25.30;;;;;;;36.51;21.98;99697.69;5092895;28;20047;-65
2021/08/27 07:30:06;;;;;;;40.25;26.30;;;;;;;36.98;21.25;99719.63;5092049;28;20040;-65
2021/08/27 07:32:32;;;;;;;42.83;26.67;;;;;;;36.82;20.90;99720.50;5091887;28;20085;-65
2021/08/27 07:34:58;;;;;;;43.72;27.42;;;;;;;37.29;20.62;99713.84;5075067;28;20044;-65
2021/08/27 07:37:24;;;;;;;45.63;29.08;;;;;;;36.72;20.99;99712.50;5041399;28;20040;-65
2021/08/27 07:39:50;;;;;;;40.50;28.02;;;;;;;37.70;20.39;99716.00;5074839;28;20050;-65
2021/08/27 07:42:16;;;;;;;46.72;30.02;;;;;;;38.36;19.53;99718.66;5058211;28;20968;-65
2021/08/27 07:44:42;;;;;;;46.42;28.33;;;;;;;38.97;18.85;99713.34;5058110;28;20040;-65
2021/08/27 07:47:08;;;;;;;41.88;29.00;;;;;;;39.73;17.76;99715.25;5058147;28;20423;-65
2021/08/27 07:49:34;;;;;;;41.65;30.00;;;;;;;40.27;16.98;99706.63;5074967;28;20098;-65
2021/08/27 07:52:00;;;;;;;47.15;29.92;;;;;;;40.73;16.69;99717.97;5074922;28;20122;-65
2021/08/27 07:54:26;;;;;;;47.55;29.10;;;;;;;41.99;15.46;99719.66;5091585;28;20040;-65
2021/08/27 07:56:52;;;;;;;42.53;28.52;;;;;;;44.07;13.67;99714.13;5092765;28;20040;-66
2021/08/27 07:59:18;;;;;;;43.40;27.35;;;;;;;46.00;11.80;99719.00;5074329;28;20143;-66
2021/08/27 08:01:43;;;;;;;37.03;26.80;;;;;;;47.09;11.01;99725.13;5074505;28;20094;-65
2021/08/27 08:04:09;;;;;;;39.35;25.45;;;;;;;48.06;10.15;99725.56;5040219;28;20046;-66
2021/08/27 08:06:35;;;;;;;32.92;25.65;;;;;;;48.34;9.56;99719.88;5073464;28;20079;-66
2021/08/27 08:09:05;;;;;;;33.22;24.25;;;;;;;48.81;9.11;99719.28;5090066;28;20491;-66
2021/08/27 08:11:30;;;;;;;31.80;24.10;;;;;;;48.13;9.87;99714.28;5073557;28;20046;-66
2021/08/27 08:13:56;;;;;;;37.83;24.85;;;;;;;48.48;9.46;99720.63;5057782;28;20040;-69
2021/08/27 08:16:22;;;;;;;35.65;24.65;;;;;;;48.98;8.78;99712.72;5057688;28;20064;-66
2021/08/27 08:18:48;;;;;;;32.97;24.55;;;;;;;48.68;9.16;99706.84;5090907;28;20456;-66
2021/08/27 08:21:15;;;;;;;34.78;24.15;;;;;;;48.27;9.25;99700.97;5104738;28;20456;-66
2021/08/27 08:23:41;;;;;;;28.92;22.70;;;;;;;48.95;9.23;99710.72;5110801;28;20058;-66
2021/08/27 08:26:06;;;;;;;34.58;24.33;;;;;;;49.64;8.77;99702.16;5093755;28;20032;-66
2021/08/27 08:28:32;;;;;;;27.92;21.88;;;;;;;50.90;7.88;99711.22;5077057;28;20040;-66
2021/08/27 08:30:58;;;;;;;27.55;21.00;;;;;;;51.97;7.11;99690.81;5112553;28;20459;-68
2021/08/27 08:33:24;;;;;;;30.52;22.85;;;;;;;52.46;6.71;99708.88;5076924;28;20127;-66
2021/08/27 08:35:50;;;;;;;30.02;21.48;;;;;;;52.72;6.68;99707.91;5093875;28;20039;-66
2021/08/27 08:38:17;;;;;;;29.88;21.20;;;;;;;53.09;6.57;99698.94;5094044;28;20063;-66
2021/08/27 08:40:45;;;;;;;29.33;20.35;;;;;;;53.83;5.91;99710.47;5110558;28;20613;-66
2021/08/27 08:43:12;;;;;;;30.63;20.98;;;;;;;54.23;5.39;99698.41;5090133;28;20507;-67
2021/08/27 08:45:50;;;;;;;29.95;21.60;;;;;;;54.41;4.95;99704.34;5091108;28;20134;-67
2021/08/27 08:48:20;;;;;;;30.98;19.67;;;;;;;54.48;5.28;99694.81;5083044;28;20575;-67
2021/08/27 08:50:46;;;;;;;31.92;20.42;;;;;;;54.96;5.12;99690.91;5060377;28;20049;-67
2021/08/27 08:53:13;;;;;;;27.15;19.48;;;;;;;55.37;4.64;99699.31;5036719;28;20396;-67
2021/08/27 08:55:40;;;;;;;25.70;20.35;;;;;;;55.58;4.52;99696.53;5070093;28;20048;-67
2021/08/27 08:58:06;;;;;;;22.52;18.52;;;;;;;55.90;4.46;99704.75;5053326;28;20045;-67
2021/08/27 09:00:32;;;;;;;29.38;20.33;;;;;;;55.95;4.30;99707.03;5036654;28;20381;-69
2021/08/27 09:03:01;;;;;;;24.55;17.83;;;;;;;56.29;4.05;99672.75;5048462;28;20041;-68
2021/08/27 09:05:27;;;;;;;;;;;;;;;56.98;3.78;99683.97;5080641;28;20024;-68
2021/08/27 09:07:53;;;;;;;24.95;18.27;;;;;;;57.06;4.05;99682.38;5046927;28;19920;-67
2021/08/27 09:10:21;;;;;;;28.83;18.05;;;;;;;56.91;4.05;99681.34;5077418;28;20048;-67
2021/08/27 09:12:48;;;;;;;22.52;18.98;;;;;;;57.00;4.17;99675.69;5079541;28;20036;-67
2021/08/27 09:15:15;;;;;;;28.70;19.20;;;;;;;56.91;3.85;99669.91;5062551;28;20028;-67
2021/08/27 09:17:49;;;;;;;25.98;18.02;;;;;;;56.92;4.05;99685.78;5078313;28;20095;-67
2021/08/27 09:20:24;;;;;;;24.48;17.70;;;;;;;56.94;3.84;99669.81;5078174;28;20035;-67
2021/08/27 09:22:54;;;;;;;24.85;18.85;;;;;;;56.99;3.93;99672.06;5079288;28;20050;-68
2021/08/27 09:25:23;;;;;;;22.63;17.13;;;;;;;56.83;3.98;99658.00;5078192;28;20047;-68
2021/08/27 09:28:09;;;;;;;22.42;16.80;;;;;;;57.15;3.76;99676.69;5081958;28;20139;-67
2021/08/27 09:30:54;;;;;;;25.75;18.15;;;;;;;57.06;3.72;99660.31;5089297;28;20036;-68
2021/08/27 09:33:24;;;;;;;23.02;17.45;;;;;;;57.11;3.78;99664.63;5079493;28;20048;-68
2021/08/27 09:36:16;;;;;;;21.98;16.75;;;;;;;57.63;3.49;99665.22;5071850;28;20466;-67
2021/08/27 09:38:42;;;;;;;17.95;15.80;;;;;;;57.53;3.78;99666.47;5062663;28;20051;-67
2021/08/27 09:41:10;;;;;;;18.88;16.27;;;;;;;57.64;3.46;99655.38;5069979;28;20043;-67
2021/08/27 09:43:56;;;;;;;20.58;15.10;;;;;;;57.63;3.52;99667.28;5087790;28;20043;-67
2021/08/27 09:46:37;;;;;;;19.55;15.30;;;;;;;57.66;3.60;99664.25;5086658;28;20055;-67
2021/08/27 09:49:05;;;;;;;21.20;15.45;;;;;;;56.87;3.93;99663.56;5070194;28;20060;-67
2021/08/27 09:51:47;;;;;;;20.55;15.38;;;;;;;55.54;4.41;99655.16;5086690;28;20039;-67
2021/08/27 09:54:28;;;;;;;19.77;15.00;;;;;;;55.26;4.46;99654.09;5070894;28;20469;-67
2021/08/27 09:56:56;;;;;;;20.10;15.65;;;;;;;55.29;4.46;99650.31;5089077;28;20051;-67
2021/08/27 09:59:37;;;;;;;23.20;15.20;;;;;;;55.29;4.58;99644.63;5088757;28;20040;-67
2021/08/27 10:02:08;;;;;;;22.90;14.57;;;;;;;55.11;4.68;99652.97;5079474;28;20048;-67
2021/08/27 10:04:35;;;;;;;22.10;14.63;;;;;;;54.05;5.51;99644.06;5062289;28;20103;-67
2021/08/27 10:07:01;;;;;;;16.85;14.13;;;;;;;54.00;5.30;99644.63;5076751;28;20822;-67
2021/08/27 10:09:45;;;;;;;21.70;14.38;;;;;;;54.05;5.22;99648.94;5064471;28;20044;-68
2021/08/27 10:12:12;;;;;;;21.40;13.43;;;;;;;53.81;5.21;99637.00;5076728;28;20044;-68
2021/08/27 10:14:39;;;;;;;18.23;13.18;;;;;;;54.18;5.41;99635.56;5077106;28;20044;-70
2021/08/27 10:17:05;;;;;;;20.40;12.98;;;;;;;54.48;5.19;99637.91;5073396;28;20566;-69
2021/08/27 10:19:32;;;;;;;17.92;12.65;;;;;;;54.56;4.99;99642.16;5051872;28;20113;-69
2021/08/27 10:21:58;;;;;;;19.42;12.25;;;;;;;54.48;5.17;99640.75;5052512;28;20033;-70
2021/08/27 10:24:24;;;;;;;22.00;12.30;;;;;;;53.91;5.18;99644.47;5068558;28;20056;-69
2021/08/27 10:26:50;;;;;;;19.15;11.50;;;;;;;52.15;6.10;99635.81;5035269;28;20036;-69
2021/08/27 10:29:16;;;;;;;22.48;11.80;;;;;;;51.96;6.59;99640.22;5051623;28;20067;-69
2021/08/27 10:31:43;;;;;;;18.42;11.75;;;;;;;50.54;6.77;99632.50;5035285;28;20413;-69
2021/08/27 10:34:09;;;;;;;16.02;11.85;;;;;;;50.67;7.07;99618.59;5069737;28;20047;-69
2021/08/27 10:36:35;;;;;;;19.25;13.35;;;;;;;51.47;6.61;99632.66;5069701;28;20123;-69
2021/08/27 10:39:02;;;;;;;16.67;11.55;;;;;;;52.75;5.55;99644.59;5069780;28;20128;-69
2021/08/27 10:41:35;;;;;;;19.70;11.15;;;;;;;52.95;5.50;99634.00;5051887;28;20036;-70
2021/08/27 10:44:10;;;;;;;17.77;10.45;;;;;;;52.79;5.58;99628.28;5068356;28;20044;-71
2021/08/27 10:46:45;;;;;;;17.83;10.75;;;;;;;53.31;5.33;99633.91;5068197;28;20555;-70
2021/08/27 10:49:12;;;;;;;13.40;10.65;;;;;;;53.25;4.90;99627.16;5067955;28;20143;-69
2021/08/27 10:51:39;;;;;;;19.25;10.00;;;;;;;53.09;4.97;99630.81;5068319;28;20517;-69
2021/08/27 10:54:07;;;;;;;20.80;10.13;;;;;;;53.40;4.96;99639.75;5070134;28;20063;-69
2021/08/27 10:56:54;;;;;;;16.38;9.73;;;;;;;53.62;4.59;99646.50;5072645;28;20071;-69
2021/08/27 10:59:24;;;;;;;15.02;9.88;;;;;;;53.72;4.73;99625.50;5055392;28;20047;-68
2021/08/27 11:01:56;;;;;;;15.10;9.55;;;;;;;53.31;4.88;99640.41;5072176;28;20048;-70
2021/08/27 11:04:23;;;;;;;15.43;10.40;;;;;;;52.64;5.39;99631.91;5055181;28;20273;-75
2021/08/27 11:06:51;;;;;;;16.40;9.65;;;;;;;51.05;5.82;99636.19;5038847;28;20041;-69
2021/08/27 11:09:21;;;;;;;13.20;9.70;;;;;;;50.13;6.20;99628.19;5071376;28;20139;-70
2021/08/27 11:12:06;;;;;;;21.17;13.05;;;;;;;49.43;6.79;99621.28;5073016;28;20086;-75
2021/08/27 11:14:32;;;;;;;16.58;10.05;;;;;;;46.56;8.52;99618.16;5038464;28;20131;-73
2021/08/27 11:17:01;;;;;;;13.95;9.75;;;;;;;46.91;8.45;99604.19;5082658;28;20085;-73
2021/08/27 11:19:44;;;;;;;13.23;9.60;;;;;;;46.25;8.92;99607.59;5065747;28;20040;-76
2021/08/27 11:22:09;;;;;;;18.95;9.27;;;;;;;45.45;9.34;99613.56;5047870;28;20392;-76
2021/08/27 11:24:39;;;;;;;19.42;9.48;;;;;;;45.36;9.46;99616.69;5046917;28;20059;-72
2021/08/27 11:27:07;;;;;;;17.50;9.40;;;;;;;44.18;10.01;99589.84;5081457;28;20048;-69